Marian S Heiskell — WDD7538 — position and weather

sailwx.info

Track history (hours):
 
Tides and Currents Weather Stations Pressure Air Temp Water Temp Dewpoint Dewpoint Depression Visibility Wind Speed Wind Dir Waves Ship Positions

Marian S Heiskell

Owner: NYCL Acquisition LLC, Brooklyn, NY. More information available from US FCC via Universal Licensing System and Coast Guard Vessel Documentation Center.

Last reported at 2017-Oct-17 22:53 UTC. Time now 2017-Oct-18 11:17 UTC.
Position N 40°40' W 074°01'.

Type: Passenger vessel. MMSI: 367187770.

Date/timePositionNaut miles runAvg speedWind from/ knotsBaromVisibWave heightAir tempDewpointWater temp
2017-Oct-17 22:53N 40°40' W 074°01'2 4.8
2017-Oct-17 22:29N 40°42' W 074°01'1 2.6
2017-Oct-17 22:00N 40°43' W 074°02'2 3.1
2017-Oct-17 21:30N 40°42' W 074°00'3 6.8
2017-Oct-17 21:00N 40°46' W 074°00'4 7.2
2017-Oct-17 20:30N 40°42' W 073°60'1 2.5
2017-Oct-17 20:00N 40°43' W 074°01'2 3.7
2017-Oct-17 19:28N 40°41' W 074°03'2 3.3
2017-Oct-17 19:00N 40°42' W 074°01'1 1.2
2017-Oct-17 18:30N 40°42' W 074°02'1 2.1
2017-Oct-17 17:57N 40°42' W 074°00'3 7.8
2017-Oct-17 17:30N 40°46' W 074°00'2 3.8
2017-Oct-17 17:00N 40°44' W 074°01'2 4.5
2017-Oct-17 16:30N 40°42' W 074°01'1 1.9
2017-Oct-17 16:00N 40°42' W 074°00'1 2.6
2017-Oct-17 15:31N 40°43' W 074°02'1 2.7
2017-Oct-17 15:00N 40°42' W 073°60'0 0.2
2017-Oct-17 14:30N 40°42' W 074°00'3 6.7
2017-Oct-17 14:00N 40°46' W 074°00'5 0.1
2017-Oct-16 01:30N 40°40' W 074°01'0 0.3
2017-Oct-16 01:00N 40°40' W 074°01'1 2.0
2017-Oct-16 00:30N 40°41' W 074°01'1 1.2
2017-Oct-16 00:00N 40°41' W 074°01'0 0.9
2017-Oct-15 23:28N 40°40' W 074°01'1 2.3
2017-Oct-15 22:52N 40°42' W 074°00'1 3.8
2017-Oct-15 22:30N 40°40' W 074°01'1 1.0
2017-Oct-15 22:00N 40°41' W 074°01'2 3.2
2017-Oct-15 21:30N 40°42' W 074°00'2 3.4
2017-Oct-15 20:58N 40°40' W 074°01'1 1.4
2017-Oct-15 20:21N 40°41' W 074°01'1 2.5
2017-Oct-15 19:58N 40°40' W 074°01'1 1.8
2017-Oct-15 19:30N 40°41' W 074°01'0 0.2
2017-Oct-15 19:00N 40°41' W 074°01'1 1.7
2017-Oct-15 18:28N 40°40' W 074°01'2 3.5
2017-Oct-15 17:55N 40°42' W 074°00'2 4.5
2017-Oct-15 17:29N 40°40' W 074°01'1 1.8
2017-Oct-15 17:00N 40°41' W 074°01'0 0.8
2017-Oct-15 16:30N 40°41' W 074°01'1 2.1
2017-Oct-15 15:59N 40°40' W 074°01'2 2.8
2017-Oct-15 15:24N 40°42' W 074°00'2 0.1
2017-Oct-15 01:36N 40°40' W 074°01'113.1
2017-Oct-15 01:30N 40°42' W 074°01'1 2.3
2017-Oct-15 00:57N 40°40' W 074°01'1 2.0
2017-Oct-15 00:30N 40°41' W 074°01'0 0.6
2017-Oct-15 00:00N 40°41' W 074°01'1 1.2
2017-Oct-14 23:29N 40°40' W 074°01'2 3.0
2017-Oct-14 22:55N 40°42' W 074°00'2 3.9
2017-Oct-14 22:28N 40°40' W 074°01'1 1.6
2017-Oct-14 22:00N 40°41' W 074°01'0 0.1
2017-Oct-14 21:11N 40°41' W 074°01'1 4.2
2017-Oct-14 20:59N 40°40' W 074°01'1 1.9
2017-Oct-14 20:22N 40°41' W 074°01'1 3.1
2017-Oct-14 20:00N 40°40' W 074°01'1 1.5
2017-Oct-14 19:30N 40°41' W 074°01'0 0.2
2017-Oct-14 19:00N 40°41' W 074°01'1 1.3
2017-Oct-14 18:30N 40°40' W 074°01'2 3.3
2017-Oct-14 17:55N 40°42' W 074°00'2 3.4
2017-Oct-14 17:26N 40°41' W 074°01'0 0.9
2017-Oct-14 17:00N 40°41' W 074°01'0 0.3
2017-Oct-14 16:12N 40°41' W 074°01'1 2.0
2017-Oct-14 15:48N 40°40' W 074°01'1 1.7
2017-Oct-14 15:24N 40°41' W 074°01'1 0.0
2017-Oct-13 23:10N 40°41' W 074°01'2 8.5
2017-Oct-13 22:54N 40°42' W 073°60'2 3.6
2017-Oct-13 22:18N 40°44' W 073°58'2 7.9
2017-Oct-13 21:59N 40°42' W 074°00'2 3.9
2017-Oct-13 21:31N 40°42' W 074°02'1 0.8
2017-Oct-13 20:20N 40°42' W 074°01'1 2.2
2017-Oct-13 20:00N 40°42' W 074°02'1 0.6
2017-Oct-13 18:47N 40°42' W 074°01'1 2.9
2017-Oct-13 18:30N 40°42' W 074°02'1 0.7
2017-Oct-13 17:17N 40°42' W 074°01'1 3.1
2017-Oct-13 17:00N 40°42' W 074°02'2 2.3
2017-Oct-13 16:17N 40°42' W 074°00'0 0.0
2017-Oct-13 15:54N 40°42' W 074°00'2 4.3
2017-Oct-13 15:30N 40°42' W 074°02'2 3.0
2017-Oct-13 14:56N 40°42' W 074°00'2 0.1
2017-Oct-13 01:00N 40°40' W 074°01'2 4.4
2017-Oct-13 00:30N 40°42' W 073°60'2 3.7
2017-Oct-12 23:59N 40°42' W 074°02'2 1.7
2017-Oct-12 22:55N 40°42' W 074°00'0 0.0
2017-Oct-12 22:28N 40°42' W 074°00'0 0.0
2017-Oct-12 21:59N 40°42' W 074°00'2 4.5
2017-Oct-12 21:30N 40°41' W 074°03'2 4.5
2017-Oct-12 21:00N 40°42' W 074°00'0 0.0
2017-Oct-12 20:30N 40°42' W 074°00'2 4.0
2017-Oct-12 20:00N 40°41' W 074°02'2 4.2
2017-Oct-12 19:30N 40°42' W 074°00'0 0.0
2017-Oct-12 19:00N 40°42' W 074°00'2 3.5
2017-Oct-12 18:28N 40°41' W 074°02'2 2.3
2017-Oct-12 17:38N 40°42' W 074°00'0 0.6
2017-Oct-12 17:29N 40°42' W 074°00'2 3.7
2017-Oct-12 16:59N 40°42' W 074°02'1 0.7
2017-Oct-12 15:40N 40°42' W 074°01'1 8.5
2017-Oct-12 15:30N 40°41' W 074°03'2 3.2
2017-Oct-12 14:48N 40°42' W 074°00'1 0.0
2017-Oct-11 00:00N 40°43' W 074°02'1 2.5
2017-Oct-10 23:30N 40°42' W 074°00'2 4.0
2017-Oct-10 22:59N 40°40' W 074°01'2 3.2
2017-Oct-10 22:30N 40°42' W 074°01'2 3.7
2017-Oct-10 22:00N 40°44' W 074°01'2 3.3
2017-Oct-10 21:30N 40°42' W 074°00'3 6.8
2017-Oct-10 21:00N 40°46' W 074°00'4 6.9
2017-Oct-10 20:29N 40°42' W 073°60'2 5.1
2017-Oct-10 20:00N 40°44' W 074°01'3 6.3
2017-Oct-10 19:29N 40°41' W 074°02'1 2.8
2017-Oct-10 19:00N 40°42' W 074°01'1 1.2
2017-Oct-10 18:30N 40°42' W 074°02'1 2.6
2017-Oct-10 18:00N 40°42' W 074°00'3 6.7
2017-Oct-10 17:30N 40°46' W 074°00'3 6.4
2017-Oct-10 16:58N 40°42' W 073°60'3 5.5
2017-Oct-10 16:30N 40°45' W 074°01'3 6.9
2017-Oct-10 16:00N 40°41' W 074°02'1 2.0
2017-Oct-10 15:30N 40°42' W 074°01'1 2.9
2017-Oct-10 15:00N 40°44' W 074°01'2 2.2
2017-Oct-10 14:00N 40°46' W 074°00'5 0.4
2017-Oct-10 00:50N 40°40' W 074°01'2 4.1
2017-Oct-10 00:26N 40°42' W 074°01'1 2.6
2017-Oct-10 00:01N 40°42' W 074°02'1 0.4
2017-Oct-09 21:49N 40°42' W 074°01'1 2.6
2017-Oct-09 21:30N 40°42' W 074°02'1 0.6
2017-Oct-09 20:20N 40°42' W 074°01'1 1.8
2017-Oct-09 20:00N 40°42' W 074°02'1 0.2
2017-Oct-09 17:16N 40°42' W 074°01'1 2.4
2017-Oct-09 17:00N 40°42' W 074°02'1 0.5
2017-Oct-09 15:47N 40°42' W 074°01'1 2.3
2017-Oct-09 15:30N 40°42' W 074°02'1 0.1
2017-Oct-08 22:29N 40°41' W 074°01'1 2.9
2017-Oct-08 21:59N 40°42' W 074°00'2 3.2
2017-Oct-08 21:30N 40°43' W 074°01'1 2.5
2017-Oct-08 20:56N 40°42' W 074°00'2 1.4
2017-Oct-08 19:46N 40°40' W 074°01'2 7.2
2017-Oct-08 19:28N 40°42' W 073°60'2 4.6
2017-Oct-08 18:56N 40°41' W 074°03'2 4.9
2017-Oct-08 18:29N 40°42' W 074°00'0 0.2
2017-Oct-08 18:00N 40°42' W 074°00'0 0.2
2017-Oct-08 16:28N 40°42' W 073°60'2 3.5
2017-Oct-08 15:57N 40°42' W 074°02'2 1.6
2017-Oct-08 15:01N 40°42' W 074°00'113.4
2017-Oct-08 14:56N 40°41' W 074°01'  
Track history (hours):
 
Tides and Currents Weather Stations Pressure Air Temp Water Temp Dewpoint Dewpoint Depression Visibility Wind Speed Wind Dir Waves Ship Positions

Marian S Heiskell

Owner: NYCL Acquisition LLC, Brooklyn, NY. More information available from US FCC via Universal Licensing System and Coast Guard Vessel Documentation Center.

Last reported at 2017-Oct-17 22:53 UTC. Time now 2017-Oct-18 11:17 UTC.
Position N 40°40' W 074°01'.

Type: Passenger vessel. MMSI: 367187770.

Date/timePositionNaut miles runAvg speedWind from/ knotsBaromVisibWave heightAir tempDewpointWater temp
2017-Oct-17 22:53N 40°40' W 074°01'2 4.8
2017-Oct-17 22:29N 40°42' W 074°01'1 2.6
2017-Oct-17 22:00N 40°43' W 074°02'2 3.1
2017-Oct-17 21:30N 40°42' W 074°00'3 6.8
2017-Oct-17 21:00N 40°46' W 074°00'4 7.2
2017-Oct-17 20:30N 40°42' W 073°60'1 2.5
2017-Oct-17 20:00N 40°43' W 074°01'2 3.7
2017-Oct-17 19:28N 40°41' W 074°03'2 3.3
2017-Oct-17 19:00N 40°42' W 074°01'1 1.2
2017-Oct-17 18:30N 40°42' W 074°02'1 2.1
2017-Oct-17 17:57N 40°42' W 074°00'3 7.8
2017-Oct-17 17:30N 40°46' W 074°00'2 3.8
2017-Oct-17 17:00N 40°44' W 074°01'2 4.5
2017-Oct-17 16:30N 40°42' W 074°01'1 1.9
2017-Oct-17 16:00N 40°42' W 074°00'1 2.6
2017-Oct-17 15:31N 40°43' W 074°02'1 2.7
2017-Oct-17 15:00N 40°42' W 073°60'0 0.2
2017-Oct-17 14:30N 40°42' W 074°00'3 6.7
2017-Oct-17 14:00N 40°46' W 074°00'5 0.1
2017-Oct-16 01:30N 40°40' W 074°01'0 0.3
2017-Oct-16 01:00N 40°40' W 074°01'1 2.0
2017-Oct-16 00:30N 40°41' W 074°01'1 1.2
2017-Oct-16 00:00N 40°41' W 074°01'0 0.9
2017-Oct-15 23:28N 40°40' W 074°01'1 2.3
2017-Oct-15 22:52N 40°42' W 074°00'1 3.8
2017-Oct-15 22:30N 40°40' W 074°01'1 1.0
2017-Oct-15 22:00N 40°41' W 074°01'2 3.2
2017-Oct-15 21:30N 40°42' W 074°00'2 3.4
2017-Oct-15 20:58N 40°40' W 074°01'1 1.4
2017-Oct-15 20:21N 40°41' W 074°01'1 2.5
2017-Oct-15 19:58N 40°40' W 074°01'1 1.8
2017-Oct-15 19:30N 40°41' W 074°01'0 0.2
2017-Oct-15 19:00N 40°41' W 074°01'1 1.7
2017-Oct-15 18:28N 40°40' W 074°01'2 3.5
2017-Oct-15 17:55N 40°42' W 074°00'2 4.5
2017-Oct-15 17:29N 40°40' W 074°01'1 1.8
2017-Oct-15 17:00N 40°41' W 074°01'0 0.8
2017-Oct-15 16:30N 40°41' W 074°01'1 2.1
2017-Oct-15 15:59N 40°40' W 074°01'2 2.8
2017-Oct-15 15:24N 40°42' W 074°00'2 0.1
2017-Oct-15 01:36N 40°40' W 074°01'113.1
2017-Oct-15 01:30N 40°42' W 074°01'1 2.3
2017-Oct-15 00:57N 40°40' W 074°01'1 2.0
2017-Oct-15 00:30N 40°41' W 074°01'0 0.6
2017-Oct-15 00:00N 40°41' W 074°01'1 1.2
2017-Oct-14 23:29N 40°40' W 074°01'2 3.0
2017-Oct-14 22:55N 40°42' W 074°00'2 3.9
2017-Oct-14 22:28N 40°40' W 074°01'1 1.6
2017-Oct-14 22:00N 40°41' W 074°01'0 0.1
2017-Oct-14 21:11N 40°41' W 074°01'1 4.2
2017-Oct-14 20:59N 40°40' W 074°01'1 1.9
2017-Oct-14 20:22N 40°41' W 074°01'1 3.1
2017-Oct-14 20:00N 40°40' W 074°01'1 1.5
2017-Oct-14 19:30N 40°41' W 074°01'0 0.2
2017-Oct-14 19:00N 40°41' W 074°01'1 1.3
2017-Oct-14 18:30N 40°40' W 074°01'2 3.3
2017-Oct-14 17:55N 40°42' W 074°00'2 3.4
2017-Oct-14 17:26N 40°41' W 074°01'0 0.9
2017-Oct-14 17:00N 40°41' W 074°01'0 0.3
2017-Oct-14 16:12N 40°41' W 074°01'1 2.0
2017-Oct-14 15:48N 40°40' W 074°01'1 1.7
2017-Oct-14 15:24N 40°41' W 074°01'1 0.0
2017-Oct-13 23:10N 40°41' W 074°01'2 8.5
2017-Oct-13 22:54N 40°42' W 073°60'2 3.6
2017-Oct-13 22:18N 40°44' W 073°58'2 7.9
2017-Oct-13 21:59N 40°42' W 074°00'2 3.9
2017-Oct-13 21:31N 40°42' W 074°02'1 0.8
2017-Oct-13 20:20N 40°42' W 074°01'1 2.2
2017-Oct-13 20:00N 40°42' W 074°02'1 0.6
2017-Oct-13 18:47N 40°42' W 074°01'1 2.9
2017-Oct-13 18:30N 40°42' W 074°02'1 0.7
2017-Oct-13 17:17N 40°42' W 074°01'1 3.1
2017-Oct-13 17:00N 40°42' W 074°02'2 2.3
2017-Oct-13 16:17N 40°42' W 074°00'0 0.0
2017-Oct-13 15:54N 40°42' W 074°00'2 4.3
2017-Oct-13 15:30N 40°42' W 074°02'2 3.0
2017-Oct-13 14:56N 40°42' W 074°00'2 0.1
2017-Oct-13 01:00N 40°40' W 074°01'2 4.4
2017-Oct-13 00:30N 40°42' W 073°60'2 3.7
2017-Oct-12 23:59N 40°42' W 074°02'2 1.7
2017-Oct-12 22:55N 40°42' W 074°00'0 0.0
2017-Oct-12 22:28N 40°42' W 074°00'0 0.0
2017-Oct-12 21:59N 40°42' W 074°00'2 4.5
2017-Oct-12 21:30N 40°41' W 074°03'2 4.5
2017-Oct-12 21:00N 40°42' W 074°00'0 0.0
2017-Oct-12 20:30N 40°42' W 074°00'2 4.0
2017-Oct-12 20:00N 40°41' W 074°02'2 4.2
2017-Oct-12 19:30N 40°42' W 074°00'0 0.0
2017-Oct-12 19:00N 40°42' W 074°00'2 3.5
2017-Oct-12 18:28N 40°41' W 074°02'2 2.3
2017-Oct-12 17:38N 40°42' W 074°00'0 0.6
2017-Oct-12 17:29N 40°42' W 074°00'2 3.7
2017-Oct-12 16:59N 40°42' W 074°02'1 0.7
2017-Oct-12 15:40N 40°42' W 074°01'1 8.5
2017-Oct-12 15:30N 40°41' W 074°03'2 3.2
2017-Oct-12 14:48N 40°42' W 074°00'1 0.0
2017-Oct-11 00:00N 40°43' W 074°02'1 2.5
2017-Oct-10 23:30N 40°42' W 074°00'2 4.0
2017-Oct-10 22:59N 40°40' W 074°01'2 3.2
2017-Oct-10 22:30N 40°42' W 074°01'2 3.7
2017-Oct-10 22:00N 40°44' W 074°01'2 3.3
2017-Oct-10 21:30N 40°42' W 074°00'3 6.8
2017-Oct-10 21:00N 40°46' W 074°00'4 6.9
2017-Oct-10 20:29N 40°42' W 073°60'2 5.1
2017-Oct-10 20:00N 40°44' W 074°01'3 6.3
2017-Oct-10 19:29N 40°41' W 074°02'1 2.8
2017-Oct-10 19:00N 40°42' W 074°01'1 1.2
2017-Oct-10 18:30N 40°42' W 074°02'1 2.6
2017-Oct-10 18:00N 40°42' W 074°00'3 6.7
2017-Oct-10 17:30N 40°46' W 074°00'3 6.4
2017-Oct-10 16:58N 40°42' W 073°60'3 5.5
2017-Oct-10 16:30N 40°45' W 074°01'3 6.9
2017-Oct-10 16:00N 40°41' W 074°02'1 2.0
2017-Oct-10 15:30N 40°42' W 074°01'1 2.9
2017-Oct-10 15:00N 40°44' W 074°01'2 2.2
2017-Oct-10 14:00N 40°46' W 074°00'5 0.4
2017-Oct-10 00:50N 40°40' W 074°01'2 4.1
2017-Oct-10 00:26N 40°42' W 074°01'1 2.6
2017-Oct-10 00:01N 40°42' W 074°02'1 0.4
2017-Oct-09 21:49N 40°42' W 074°01'1 2.6
2017-Oct-09 21:30N 40°42' W 074°02'1 0.6
2017-Oct-09 20:20N 40°42' W 074°01'1 1.8
2017-Oct-09 20:00N 40°42' W 074°02'1 0.2
2017-Oct-09 17:16N 40°42' W 074°01'1 2.4
2017-Oct-09 17:00N 40°42' W 074°02'1 0.5
2017-Oct-09 15:47N 40°42' W 074°01'1 2.3
2017-Oct-09 15:30N 40°42' W 074°02'1 0.1
2017-Oct-08 22:29N 40°41' W 074°01'1 2.9
2017-Oct-08 21:59N 40°42' W 074°00'2 3.2
2017-Oct-08 21:30N 40°43' W 074°01'1 2.5
2017-Oct-08 20:56N 40°42' W 074°00'2 1.4
2017-Oct-08 19:46N 40°40' W 074°01'2 7.2
2017-Oct-08 19:28N 40°42' W 073°60'2 4.6
2017-Oct-08 18:56N 40°41' W 074°03'2 4.9
2017-Oct-08 18:29N 40°42' W 074°00'0 0.2
2017-Oct-08 18:00N 40°42' W 074°00'0 0.2
2017-Oct-08 16:28N 40°42' W 073°60'2 3.5
2017-Oct-08 15:57N 40°42' W 074°02'2 1.6
2017-Oct-08 15:01N 40°42' W 074°00'113.4
2017-Oct-08 14:56N 40°41' W 074°01'  

Dump ship's entire track history